Time;durP1;ratioP1;P1;durP2;ratioP2;P2;SDS_P1;SDS_P2;PMS_P1;PMS_P2;Temp;Humidity;BMP_temperature;BMP_pressure;BME280_temperature;BME280_humidity;BME280_pressure;Samples;Min_cycle;Max_cycle;Signal;HPM_P1;HPM_P2
2022/11/21 00:00:37;;;;;;;22.52;13.23;;;;;;;0.54;48.54;100646.09;7391660;19;20007;-58
2022/11/21 00:03:03;;;;;;;23.70;12.60;;;;;;;0.69;48.21;100648.69;7387354;19;20003;-59
2022/11/21 00:05:31;;;;;;;21.98;12.25;;;;;;;0.64;47.97;100643.38;7390781;19;20022;-58
2022/11/21 00:07:57;;;;;;;22.10;12.68;;;;;;;0.46;48.59;100647.47;7389399;19;20002;-58
2022/11/21 00:10:29;;;;;;;22.35;12.52;;;;;;;0.61;48.17;100635.84;7391433;19;20044;-59
2022/11/21 00:12:55;;;;;;;21.48;12.82;;;;;;;0.71;48.01;100635.81;7388532;19;20014;-59
2022/11/21 00:15:24;;;;;;;21.83;12.38;;;;;;;0.97;47.55;100637.56;7390263;19;20003;-59
2022/11/21 00:17:50;;;;;;;25.65;13.10;;;;;;;1.11;47.18;100641.19;7390241;19;20485;-56
2022/11/21 00:20:24;;;;;;;22.13;12.52;;;;;;;1.19;46.91;100634.41;7390283;19;20494;-59
2022/11/21 00:22:49;;;;;;;21.97;12.37;;;;;;;1.21;46.77;100632.25;7388833;19;20010;-59
2022/11/21 00:25:15;;;;;;;21.85;11.80;;;;;;;1.10;46.66;100626.97;7390482;19;20576;-59
2022/11/21 00:27:41;;;;;;;21.40;11.88;;;;;;;0.55;47.88;100628.94;7388822;19;20330;-60
2022/11/21 00:30:09;;;;;;;21.25;12.10;;;;;;;0.69;47.82;100629.09;7389046;19;20003;-59
2022/11/21 00:32:35;;;;;;;23.83;12.93;;;;;;;1.00;47.10;100618.16;7388994;19;20111;-59
2022/11/21 00:35:01;;;;;;;23.50;14.15;;;;;;;0.86;47.04;100616.06;7389910;19;19999;-60
2022/11/21 00:37:26;;;;;;;22.73;11.75;;;;;;;0.59;47.62;100621.91;7387882;19;20567;-59
2022/11/21 00:39:52;;;;;;;22.92;12.98;;;;;;;0.28;48.36;100616.72;7389995;19;20070;-59
2022/11/21 00:42:18;;;;;;;23.73;12.57;;;;;;;0.45;48.43;100620.94;7388756;19;20006;-59
2022/11/21 00:44:43;;;;;;;23.10;12.27;;;;;;;0.78;47.41;100623.94;7389307;19;20466;-60
2022/11/21 00:47:09;;;;;;;21.60;12.52;;;;;;;0.29;48.10;100617.50;7390173;19;20019;-59
2022/11/21 00:49:35;;;;;;;22.63;12.93;;;;;;;0.66;47.70;100619.69;7389429;19;20033;-59
2022/11/21 00:52:00;;;;;;;23.92;12.25;;;;;;;0.83;47.12;100615.84;7389580;19;19995;-59
2022/11/21 00:54:26;;;;;;;24.05;12.52;;;;;;;0.84;47.06;100617.44;7390431;19;20318;-60
2022/11/21 00:56:52;;;;;;;20.98;12.02;;;;;;;0.77;47.32;100611.59;7390091;19;20002;-58
2022/11/21 00:59:18;;;;;;;20.55;11.82;;;;;;;0.70;47.39;100615.41;7387171;19;20033;-58
2022/11/21 01:01:43;;;;;;;22.83;12.35;;;;;;;0.85;47.28;100629.81;7390784;19;20002;-58
2022/11/21 01:04:09;;;;;;;21.92;12.30;;;;;;;0.92;47.17;100619.53;7394767;19;20058;-58
2022/11/21 01:06:37;;;;;;;20.55;11.52;;;;;;;0.92;47.08;100619.53;7396606;19;19994;-60
2022/11/21 01:09:03;;;;;;;19.55;11.88;;;;;;;0.83;47.39;100608.59;7396482;19;20094;-59
2022/11/21 01:11:29;;;;;;;22.15;12.30;;;;;;;0.88;47.27;100607.72;7395831;19;20035;-59
2022/11/21 01:13:54;;;;;;;24.98;12.77;;;;;;;0.92;47.34;100604.22;7395657;19;20003;-59
2022/11/21 01:16:23;;;;;;;24.92;13.32;;;;;;;1.04;47.03;100609.25;7395386;19;19999;-59
2022/11/21 01:18:49;;;;;;;22.63;12.65;;;;;;;0.99;47.08;100614.69;7393491;19;20522;-59
2022/11/21 01:21:18;;;;;;;24.80;12.20;;;;;;;1.05;46.76;100621.63;7395426;19;20006;-58
2022/11/21 01:23:44;;;;;;;20.85;11.75;;;;;;;1.16;46.74;100614.25;7391723;19;20006;-60
2022/11/21 01:26:12;;;;;;;21.77;12.02;;;;;;;1.15;46.77;100614.53;7395266;19;20019;-59
2022/11/21 01:28:38;;;;;;;19.83;11.93;;;;;;;1.02;47.06;100610.63;7396049;19;20028;-60
2022/11/21 01:31:08;;;;;;;19.98;11.65;;;;;;;0.98;47.11;100610.41;7395988;19;20006;-59
2022/11/21 01:33:35;;;;;;;20.38;12.05;;;;;;;1.04;47.12;100611.16;7395739;19;19999;-58
2022/11/21 01:36:25;;;;;;;23.88;12.60;;;;;;;0.70;47.57;100612.72;7395354;19;20006;-59
2022/11/21 01:38:53;;;;;;;22.30;12.18;;;;;;;0.48;48.07;100615.81;7392833;19;20090;-58
2022/11/21 01:41:25;;;;;;;20.55;12.50;;;;;;;0.38;48.32;100622.03;7395053;19;20309;-58
2022/11/21 01:43:51;;;;;;;24.25;12.98;;;;;;;0.51;48.09;100614.44;7394170;19;20014;-58
2022/11/21 01:46:21;;;;;;;22.80;12.85;;;;;;;0.78;47.50;100613.19;7394939;19;20003;-58
2022/11/21 01:48:53;;;;;;;24.15;13.07;;;;;;;0.38;48.51;100616.66;7395916;19;20002;-58
2022/11/21 01:51:25;;;;;;;23.30;11.93;;;;;;;0.48;48.33;100621.19;7394645;19;20006;-58
2022/11/21 01:53:58;;;;;;;23.52;12.27;;;;;;;0.52;48.35;100624.09;7395720;19;20003;-58
2022/11/21 01:56:24;;;;;;;21.33;12.50;;;;;;;0.84;47.47;100620.94;7393832;19;20003;-58
2022/11/21 01:58:54;;;;;;;21.02;11.93;;;;;;;0.66;47.37;100622.38;7393751;19;20020;-58
2022/11/21 02:01:20;;;;;;;21.48;12.13;;;;;;;0.24;48.41;100629.06;7394169;19;20003;-59
2022/11/21 02:03:47;;;;;;;21.42;12.02;;;;;;;0.08;48.76;100632.88;7395325;19;20026;-58
2022/11/21 02:06:12;;;;;;;23.20;12.75;;;;;;;0.21;48.90;100621.56;7391379;19;20490;-58
2022/11/21 02:08:41;;;;;;;21.00;12.10;;;;;;;0.32;48.44;100625.81;7393955;19;20055;-58
2022/11/21 02:11:29;;;;;;;23.65;12.07;;;;;;;0.19;48.68;100629.09;7393209;19;20470;-58
2022/11/21 02:13:55;;;;;;;22.90;12.25;;;;;;;0.48;48.02;100626.56;7394287;19;20030;-58
2022/11/21 02:16:22;;;;;;;21.85;11.63;;;;;;;0.78;47.36;100623.94;7391914;19;20010;-58
2022/11/21 02:18:48;;;;;;;22.25;12.38;;;;;;;0.67;47.29;100629.38;7392007;19;20474;-58
2022/11/21 02:21:38;;;;;;;21.63;11.45;;;;;;;0.38;47.94;100626.59;7393345;19;19999;-58
2022/11/21 02:24:09;;;;;;;20.75;11.77;;;;;;;0.61;47.42;100625.09;7394673;19;20342;-58
2022/11/21 02:26:35;;;;;;;22.40;13.13;;;;;;;0.29;48.06;100626.34;7392974;19;20023;-58
2022/11/21 02:29:01;;;;;;;22.88;13.23;;;;;;;0.01;48.74;100634.00;7392373;19;20462;-58
2022/11/21 02:31:26;;;;;;;21.98;11.43;;;;;;;0.26;48.52;100629.63;7393331;19;20013;-58
2022/11/21 02:33:52;;;;;;;21.00;11.65;;;;;;;0.60;47.46;100638.81;7393528;19;19994;-58
2022/11/21 02:36:39;;;;;;;20.85;11.88;;;;;;;0.67;46.87;100634.75;7392648;19;19999;-58
2022/11/21 02:39:07;;;;;;;19.52;11.50;;;;;;;0.42;47.25;100629.53;7391936;19;20026;-58
2022/11/21 02:41:36;;;;;;;21.10;11.10;;;;;;;0.48;47.36;100625.72;7390799;19;20013;-58
2022/11/21 02:44:14;;;;;;;22.38;11.70;;;;;;;0.35;47.20;100637.91;7393104;19;20013;-58
2022/11/21 02:46:49;;;;;;;22.23;12.20;;;;;;;0.20;47.96;100642.25;7393066;19;20010;-58
2022/11/21 02:49:20;;;;;;;20.55;12.40;;;;;;;0.19;47.91;100634.47;7393131;19;19999;-58
2022/11/21 02:51:47;;;;;;;20.00;11.95;;;;;;;0.42;47.48;100629.53;7390078;19;20493;-58
2022/11/21 02:54:13;;;;;;;23.13;12.50;;;;;;;0.61;46.82;100632.38;7393399;19;19990;-58
2022/11/21 02:56:38;;;;;;;20.10;11.43;;;;;;;0.20;47.25;100628.03;7390661;19;19998;-58
2022/11/21 02:59:04;;;;;;;20.67;11.43;;;;;;;0.02;48.07;100629.44;7391245;19;20007;-59
2022/11/21 03:01:30;;;;;;;21.20;11.55;;;;;;;-0.08;48.26;100630.25;7392639;19;20007;-59
2022/11/21 03:03:55;;;;;;;20.70;12.27;;;;;;;-0.17;48.52;100635.41;7392275;19;19995;-59
2022/11/21 03:06:21;;;;;;;19.65;11.60;;;;;;;-0.06;48.28;100630.78;7392253;19;20010;-59
2022/11/21 03:08:47;;;;;;;20.85;12.20;;;;;;;-0.10;48.03;100631.63;7392769;19;20002;-59
2022/11/21 03:11:12;;;;;;;20.13;11.50;;;;;;;-0.13;48.19;100630.28;7392014;19;20026;-59
2022/11/21 03:13:38;;;;;;;20.90;11.77;;;;;;;-0.19;48.37;100634.88;7392207;19;20003;-59
2022/11/21 03:16:04;;;;;;;20.77;11.98;;;;;;;-0.20;48.49;100638.63;7392328;19;20028;-58
2022/11/21 03:18:29;;;;;;;19.23;12.07;;;;;;;-0.13;48.32;100632.16;7391901;19;20021;-58
2022/11/21 03:20:56;;;;;;;21.98;12.23;;;;;;;-0.21;48.35;100628.97;7392163;19;20069;-59
2022/11/21 03:23:22;;;;;;;22.55;12.25;;;;;;;0.22;47.27;100623.19;7390297;19;20040;-58
2022/11/21 03:25:48;;;;;;;22.45;12.63;;;;;;;0.26;47.06;100629.63;7390276;19;20007;-58
2022/11/21 03:28:13;;;;;;;20.70;11.35;;;;;;;0.19;47.25;100637.16;7392666;19;19994;-58
2022/11/21 03:30:39;;;;;;;20.98;11.68;;;;;;;-0.07;47.52;100634.56;7391614;19;20326;-58
2022/11/21 03:33:05;;;;;;;21.15;11.65;;;;;;;-0.29;48.19;100634.06;7390406;19;20058;-58
2022/11/21 03:35:30;;;;;;;19.63;11.63;;;;;;;-0.39;48.47;100643.78;7390943;19;19994;-58
2022/11/21 03:37:56;;;;;;;22.27;12.23;;;;;;;-0.40;48.40;100642.16;7391762;19;19995;-58
2022/11/21 03:40:22;;;;;;;22.55;12.25;;;;;;;-0.25;48.32;100637.84;7392110;19;20338;-59
2022/11/21 03:42:47;;;;;;;23.23;12.35;;;;;;;-0.21;48.49;100641.56;7389959;19;20466;-59
2022/11/21 03:45:13;;;;;;;19.98;11.68;;;;;;;-0.17;48.22;100646.13;7390742;19;20003;-58
2022/11/21 03:47:39;;;;;;;21.52;12.10;;;;;;;-0.05;48.09;100643.13;7389981;19;20015;-58
2022/11/21 03:50:05;;;;;;;21.67;11.88;;;;;;;-0.01;48.08;100641.53;7391037;19;20466;-59
2022/11/21 03:52:32;;;;;;;20.70;12.48;;;;;;;-0.04;48.52;100644.75;7390072;19;19995;-59
2022/11/21 03:54:57;;;;;;;23.58;12.52;;;;;;;0.32;47.57;100638.44;7390840;19;20003;-59
2022/11/21 03:57:23;;;;;;;22.27;11.93;;;;;;;0.19;47.93;100635.28;7390317;19;19991;-59
2022/11/21 03:59:49;;;;;;;84.00;22.75;;;;;;;0.31;48.89;100642.19;7390707;19;20022;-59
2022/11/21 04:02:14;;;;;;;34.42;17.58;;;;;;;0.39;48.93;100637.03;7389533;19;20001;-59
2022/11/21 04:04:40;;;;;;;39.45;17.55;;;;;;;0.48;48.59;100639.97;7390497;19;19994;-59
2022/11/21 04:07:06;;;;;;;40.90;18.13;;;;;;;0.49;49.53;100638.09;7390271;19;20483;-59
2022/11/21 04:09:31;;;;;;;28.77;14.65;;;;;;;0.94;48.27;100636.97;7391398;19;20035;-59
2022/11/21 04:11:57;;;;;;;33.03;16.83;;;;;;;0.73;48.80;100636.34;7390165;19;20018;-59
2022/11/21 04:14:23;;;;;;;31.20;16.13;;;;;;;0.99;48.61;100630.81;7390696;19;19999;-59
2022/11/21 04:16:48;;;;;;;47.83;16.73;;;;;;;0.93;48.54;100626.50;7389810;19;20506;-58
2022/11/21 04:19:14;;;;;;;86.15;18.73;;;;;;;0.77;49.18;100622.34;7388357;19;20008;-58
2022/11/21 04:21:39;;;;;;;31.38;16.30;;;;;;;0.61;49.69;100619.75;7387033;19;20002;-58
2022/11/21 04:24:05;;;;;;;35.90;16.25;;;;;;;0.82;49.04;100620.41;7388208;19;20098;-58
2022/11/21 04:26:31;;;;;;;32.78;15.75;;;;;;;0.55;49.81;100618.19;7389275;19;20019;-58
2022/11/21 04:29:03;;;;;;;94.68;21.52;;;;;;;0.62;49.77;100617.88;7390279;19;20002;-58
2022/11/21 04:31:29;;;;;;;48.53;18.40;;;;;;;0.55;50.02;100620.88;7389283;19;20025;-58
2022/11/21 04:33:55;;;;;;;64.28;19.50;;;;;;;0.56;50.27;100622.47;7389125;19;20006;-59
2022/11/21 04:36:20;;;;;;;88.57;20.55;;;;;;;0.46;50.35;100626.00;7390749;19;20454;-58
2022/11/21 04:38:46;;;;;;;67.38;20.35;;;;;;;0.33;51.12;100622.06;7394256;19;20338;-59
2022/11/21 04:41:12;;;;;;;47.10;18.85;;;;;;;0.42;51.13;100618.78;7397044;19;20006;-58
2022/11/21 04:43:37;;;;;;;63.30;19.42;;;;;;;0.59;50.39;100616.53;7397001;19;19995;-58
2022/11/21 04:46:03;;;;;;;50.88;19.35;;;;;;;0.65;50.37;100620.00;7396697;19;20396;-58
2022/11/21 04:48:29;;;;;;;77.00;19.40;;;;;;;0.58;50.42;100620.31;7396739;19;20632;-58
2022/11/21 04:50:54;;;;;;;87.78;20.48;;;;;;;0.54;50.47;100616.56;7397089;19;20006;-58
2022/11/21 04:53:20;;;;;;;69.78;18.98;;;;;;;0.61;50.46;100625.09;7396673;19;20005;-58
2022/11/21 04:55:45;;;;;;;165.00;24.85;;;;;;;0.43;50.92;100629.25;7395370;19;20009;-58
2022/11/21 04:58:11;;;;;;;77.75;20.00;;;;;;;0.57;50.62;100632.13;7395238;19;20457;-58
2022/11/21 05:00:37;;;;;;;114.35;22.20;;;;;;;0.43;51.03;100633.81;7396059;19;20005;-58
2022/11/21 05:03:04;;;;;;;75.22;19.00;;;;;;;0.37;51.04;100641.09;7392018;19;19998;-58
2022/11/21 05:05:30;;;;;;;114.57;21.25;;;;;;;0.25;51.33;100637.94;7395647;19;20087;-58
2022/11/21 05:07:55;;;;;;;192.35;25.42;;;;;;;0.08;51.60;100638.25;7396291;19;20454;-58
2022/11/21 05:10:21;;;;;;;34.33;16.08;;;;;;;0.18;51.71;100632.88;7396962;19;20008;-58
2022/11/21 05:15:38;;;;;;;59.35;18.75;;;;;;;0.37;50.52;100630.34;7393779;19;20011;-58
2022/11/21 05:18:03;;;;;;;88.75;22.15;;;;;;;0.21;51.22;100621.56;7395287;19;20315;-58
2022/11/21 05:20:29;;;;;;;102.57;21.38;;;;;;;0.12;51.39;100623.22;7396254;19;20023;-58
2022/11/21 05:22:54;;;;;;;95.20;20.70;;;;;;;0.12;51.49;100628.59;7392692;19;20686;-58
2022/11/21 05:25:20;;;;;;;67.25;19.55;;;;;;;0.18;51.38;100627.50;7395182;19;20003;-59
2022/11/21 05:27:46;;;;;;;55.63;19.27;;;;;;;0.27;51.08;100628.53;7395410;19;20336;-58
2022/11/21 05:30:12;;;;;;;68.72;20.77;;;;;;;0.32;50.86;100628.50;7395698;19;20466;-58
2022/11/21 05:32:37;;;;;;;47.80;17.45;;;;;;;0.42;50.43;100624.16;7393049;19;20011;-57
2022/11/21 05:35:03;;;;;;;54.10;19.63;;;;;;;0.60;50.36;100620.84;7394835;19;20002;-58
2022/11/21 05:37:29;;;;;;;89.82;20.00;;;;;;;0.41;50.72;100627.91;7394170;19;20062;-58
2022/11/21 05:39:55;;;;;;;109.93;22.45;;;;;;;0.17;51.14;100615.16;7396352;19;20003;-58
2022/11/21 05:43:44;;;;;;;37.75;18.30;;;;;;;0.13;51.10;100616.78;7391918;19;20021;-62
2022/11/21 05:45:07;;;;;;;31.35;18.15;;;;;;;0.46;49.83;100617.16;7394861;19;20102;-60
2022/11/21 05:47:32;;;;;;;58.35;18.13;;;;;;;0.12;50.69;100604.44;7394911;19;20007;-59
2022/11/21 05:49:58;;;;;;;51.63;18.25;;;;;;;0.11;51.58;100616.25;7394751;19;20014;-59
2022/11/21 05:52:24;;;;;;;55.30;19.02;;;;;;;0.15;51.36;100615.41;7392648;19;20010;-59
2022/11/21 05:54:49;;;;;;;49.50;18.17;;;;;;;0.34;50.88;100626.34;7392955;19;20514;-59
2022/11/21 05:57:15;;;;;;;40.92;17.38;;;;;;;0.39;50.72;100623.63;7395032;19;20473;-58
2022/11/21 05:59:41;;;;;;;40.97;17.67;;;;;;;0.47;50.73;100614.19;7394896;19;20359;-58
2022/11/21 06:04:50;;;;;;;53.30;18.73;;;;;;;0.29;50.79;100623.66;7393915;19;20014;-58
2022/11/21 06:07:16;;;;;;;37.00;16.67;;;;;;;0.31;50.95;100616.16;7393575;19;20002;-60
2022/11/21 06:09:42;;;;;;;48.20;18.30;;;;;;;0.46;50.59;100620.63;7393725;19;20006;-59
2022/11/21 06:12:07;;;;;;;60.60;18.73;;;;;;;0.30;50.77;100616.44;7391372;19;20019;-59
2022/11/21 06:14:33;;;;;;;69.80;19.45;;;;;;;0.10;51.14;100625.38;7394178;19;20006;-59
2022/11/21 06:16:58;;;;;;;40.20;18.38;;;;;;;0.41;50.56;100599.19;7392036;19;20003;-60
2022/11/21 06:19:24;;;;;;;32.05;16.63;;;;;;;0.32;50.08;100607.00;7391794;19;20016;-59
2022/11/21 06:21:50;;;;;;;33.30;15.90;;;;;;;0.53;49.66;100609.56;7392972;19;20040;-58
2022/11/21 06:24:15;;;;;;;32.65;15.43;;;;;;;0.67;49.03;100607.88;7391616;19;20070;-59
2022/11/21 06:26:41;;;;;;;33.22;16.30;;;;;;;0.37;49.22;100604.31;7393529;19;20015;-59
2022/11/21 06:29:10;;;;;;;27.83;15.55;;;;;;;0.34;49.61;100604.84;7393347;19;20002;-59
2022/11/21 06:31:35;;;;;;;32.13;16.52;;;;;;;0.55;48.84;100602.06;7392926;19;20015;-58
2022/11/21 06:34:01;;;;;;;27.83;15.95;;;;;;;0.58;48.55;100593.47;7394119;19;19998;-58
2022/11/21 06:36:27;;;;;;;25.75;14.70;;;;;;;0.67;48.14;100591.78;7391090;19;19998;-59
2022/11/21 06:38:54;;;;;;;25.95;15.13;;;;;;;0.68;48.00;100584.50;7392554;19;19998;-60
2022/11/21 06:41:22;;;;;;;24.60;14.68;;;;;;;0.64;47.70;100580.78;7393196;19;20003;-57
2022/11/21 06:43:48;;;;;;;25.83;14.02;;;;;;;0.60;47.43;100575.16;7393568;19;20016;-57
2022/11/21 06:46:15;;;;;;;25.85;13.55;;;;;;;0.55;47.30;100567.94;7392488;19;19991;-60
2022/11/21 06:48:42;;;;;;;24.55;13.80;;;;;;;0.45;47.55;100572.59;7393590;19;20020;-57
2022/11/21 06:51:13;;;;;;;24.27;13.50;;;;;;;0.35;47.62;100571.56;7392589;19;20019;-57
2022/11/21 06:53:39;;;;;;;23.48;13.23;;;;;;;0.29;47.59;100575.34;7393677;19;19994;-59
2022/11/21 06:56:05;;;;;;;24.60;14.10;;;;;;;-0.08;48.09;100573.91;7390470;19;20001;-59
2022/11/21 06:58:31;;;;;;;24.38;14.20;;;;;;;-0.34;48.98;100581.28;7390362;19;19999;-59
2022/11/21 07:00:56;;;;;;;23.27;13.98;;;;;;;-0.19;48.80;100575.03;7392436;19;20304;-59
2022/11/21 07:03:22;;;;;;;24.08;13.70;;;;;;;-0.28;48.86;100587.41;7392728;19;20003;-59
2022/11/21 07:05:49;;;;;;;25.63;14.10;;;;;;;-0.28;48.89;100593.56;7391354;19;20038;-59
2022/11/21 07:08:14;;;;;;;28.52;15.52;;;;;;;-0.20;49.11;100600.28;7393320;19;20079;-59
2022/11/21 07:10:40;;;;;;;29.70;15.50;;;;;;;-0.18;49.19;100608.84;7393239;19;20026;-59
2022/11/21 07:13:21;;;;;;;32.42;16.58;;;;;;;-0.10;49.00;100599.44;7389067;19;20021;-59
2022/11/21 07:15:49;;;;;;;38.00;17.05;;;;;;;-0.15;49.59;100619.03;7391256;19;20487;-59
2022/11/21 07:18:15;;;;;;;31.15;16.67;;;;;;;-0.31;49.99;100615.56;7389607;19;20457;-59
2022/11/21 07:20:41;;;;;;;40.33;19.17;;;;;;;-0.38;50.34;100610.50;7391325;19;20058;-59
2022/11/21 07:23:07;;;;;;;32.53;17.48;;;;;;;-0.28;50.23;100622.28;7390107;19;20019;-59
2022/11/21 07:25:33;;;;;;;30.27;16.55;;;;;;;-0.07;49.57;100609.63;7391053;19;20010;-58
2022/11/21 07:28:01;;;;;;;29.92;15.32;;;;;;;0.22;48.67;100608.97;7391951;19;20423;-63
2022/11/21 07:30:27;;;;;;;32.15;16.42;;;;;;;0.56;47.75;100611.72;7392163;19;20003;-58
2022/11/21 07:33:00;;;;;;;32.92;17.02;;;;;;;0.17;48.41;100609.78;7388718;19;20006;-58
2022/11/21 07:35:26;;;;;;;32.63;16.98;;;;;;;0.37;47.89;100604.31;7390958;19;20095;-58
2022/11/21 07:37:52;;;;;;;33.55;17.58;;;;;;;0.09;48.57;100596.94;7390467;19;20002;-59
2022/11/21 07:40:19;;;;;;;36.25;18.42;;;;;;;-0.10;49.06;100589.50;7391945;19;20002;-59
2022/11/21 07:42:45;;;;;;;40.08;20.95;;;;;;;0.33;47.97;100592.53;7390484;19;20003;-58
2022/11/21 07:45:11;;;;;;;53.67;27.02;;;;;;;0.43;47.63;100590.84;7388793;19;20478;-58
2022/11/21 07:47:37;;;;;;;43.90;20.67;;;;;;;0.53;47.23;100591.59;7391268;19;20029;-58
2022/11/21 07:50:04;;;;;;;30.80;15.90;;;;;;;0.33;47.80;100592.53;7390695;19;20015;-58
2022/11/21 07:52:30;;;;;;;30.02;15.38;;;;;;;0.50;47.36;100602.09;7390060;19;20002;-58
2022/11/21 07:54:56;;;;;;;32.15;16.33;;;;;;;0.24;47.79;100604.91;7390398;19;20301;-58
2022/11/21 07:57:22;;;;;;;32.75;17.85;;;;;;;0.09;48.35;100602.31;7391069;19;20002;-57
2022/11/21 07:59:48;;;;;;;45.28;23.95;;;;;;;0.41;47.69;100609.13;7390578;19;20037;-58
2022/11/21 08:02:20;;;;;;;42.10;22.25;;;;;;;0.24;48.02;100602.22;7389641;19;20470;-58
2022/11/21 08:04:49;;;;;;;42.85;22.67;;;;;;;0.14;48.61;100602.28;7390523;19;20003;-58
2022/11/21 08:07:17;;;;;;;46.72;22.90;;;;;;;0.53;48.14;100596.16;7389498;19;20394;-58
2022/11/21 08:09:42;;;;;;;50.08;25.05;;;;;;;0.68;47.81;100598.75;7390428;19;19995;-58
2022/11/21 08:12:09;;;;;;;50.17;24.77;;;;;;;0.65;47.70;100604.69;7396271;19;20090;-57
2022/11/21 08:14:36;;;;;;;37.53;20.27;;;;;;;0.61;48.35;100609.00;7397912;19;20009;-57
2022/11/21 08:17:02;;;;;;;33.95;18.25;;;;;;;0.76;48.49;100602.72;7397600;19;20022;-58
2022/11/21 08:19:28;;;;;;;34.40;16.98;;;;;;;0.91;48.48;100599.13;7395393;19;20007;-57
2022/11/21 08:21:53;;;;;;;36.95;19.02;;;;;;;0.82;48.38;100603.50;7397145;19;20336;-57
2022/11/21 08:24:19;;;;;;;37.08;17.85;;;;;;;0.95;48.28;100608.25;7395541;19;20002;-57
2022/11/21 08:26:45;;;;;;;32.42;17.83;;;;;;;1.08;48.08;100610.31;7397293;19;20030;-57
2022/11/21 08:29:14;;;;;;;35.90;17.77;;;;;;;1.16;48.15;100603.50;7397465;19;20078;-57
2022/11/21 08:31:40;;;;;;;34.95;17.33;;;;;;;1.10;48.29;100599.28;7396219;19;19998;-58
2022/11/21 08:34:06;;;;;;;34.47;18.15;;;;;;;1.09;48.44;100601.16;7397986;19;20003;-58
2022/11/21 08:36:32;;;;;;;38.17;17.48;;;;;;;1.21;48.32;100600.78;7396724;19;19994;-59
2022/11/21 08:38:58;;;;;;;32.05;18.15;;;;;;;1.29;48.30;100605.53;7394582;19;20489;-58
2022/11/21 08:44:08;;;;;;;29.38;17.10;;;;;;;1.27;48.26;100609.63;7395860;19;19994;-58
2022/11/21 08:46:36;;;;;;;29.88;16.88;;;;;;;1.29;48.32;100607.44;7396535;19;20008;-58
2022/11/21 08:49:06;;;;;;;29.23;16.33;;;;;;;1.29;48.39;100608.22;7396176;19;19991;-56
2022/11/21 08:51:32;;;;;;;32.65;17.38;;;;;;;1.28;48.62;100606.66;7396329;19;20006;-57
2022/11/21 08:53:58;;;;;;;28.85;16.65;;;;;;;1.27;48.32;100610.41;7397018;19;20481;-57
2022/11/21 08:56:24;;;;;;;30.45;16.77;;;;;;;1.36;48.56;100613.28;7395199;19;20086;-59
2022/11/21 08:58:49;;;;;;;33.80;17.10;;;;;;;1.42;48.27;100606.78;7394366;19;19997;-59
2022/11/21 09:01:15;;;;;;;30.42;17.63;;;;;;;1.43;48.18;100607.56;7395933;19;19998;-59
2022/11/21 09:03:41;;;;;;;30.25;16.83;;;;;;;1.40;48.32;100608.97;7396653;19;20003;-59
2022/11/21 09:06:06;;;;;;;33.97;17.50;;;;;;;1.46;48.34;100607.81;7396025;19;19998;-59
2022/11/21 09:08:32;;;;;;;32.05;17.38;;;;;;;1.60;47.94;100601.75;7397202;19;20003;-58
2022/11/21 09:11:02;;;;;;;30.15;16.42;;;;;;;1.54;48.16;100609.09;7396676;19;20016;-59
2022/11/21 09:13:28;;;;;;;35.08;18.83;;;;;;;1.57;48.20;100596.97;7396719;19;19999;-58
2022/11/21 09:18:38;;;;;;;32.63;17.20;;;;;;;1.86;47.62;100591.50;7394823;19;19991;-59
2022/11/21 09:21:03;;;;;;;31.55;17.50;;;;;;;1.96;47.30;100595.97;7395715;19;19995;-59
2022/11/21 09:23:29;;;;;;;29.63;16.40;;;;;;;2.01;47.24;100587.84;7392482;19;20458;-59
2022/11/21 09:25:55;;;;;;;33.22;17.80;;;;;;;1.94;47.41;100584.69;7395170;19;20019;-60
2022/11/21 09:28:20;;;;;;;28.73;15.80;;;;;;;1.89;47.36;100582.06;7396271;19;20336;-59
2022/11/21 09:30:46;;;;;;;29.52;16.02;;;;;;;1.93;47.39;100580.41;7396482;19;20002;-59
2022/11/21 09:33:15;;;;;;;28.83;15.43;;;;;;;1.95;47.30;100586.28;7393532;19;20002;-58
2022/11/21 09:35:41;;;;;;;28.63;15.77;;;;;;;1.97;47.14;100578.75;7395498;19;20014;-59
2022/11/21 09:38:07;;;;;;;27.77;16.60;;;;;;;2.02;47.04;100576.78;7393651;19;20034;-59
2022/11/21 09:40:34;;;;;;;30.10;17.13;;;;;;;2.12;46.99;100570.47;7396515;19;20002;-59
2022/11/21 09:43:18;;;;;;;29.05;16.90;;;;;;;2.16;46.90;100568.78;7393731;19;20023;-59
2022/11/21 09:45:49;;;;;;;30.10;16.02;;;;;;;2.28;46.75;100572.94;7392976;19;20013;-59
2022/11/21 09:48:37;;;;;;;27.85;15.13;;;;;;;2.30;46.76;100565.38;7395455;19;20002;-60
2022/11/21 09:51:12;;;;;;;30.30;16.80;;;;;;;2.44;46.62;100570.84;7394723;19;20124;-59
2022/11/21 09:54:04;;;;;;;30.35;16.27;;;;;;;2.53;46.53;100575.28;7395117;19;20010;-59
2022/11/21 09:56:36;;;;;;;31.85;17.50;;;;;;;2.73;46.23;100573.38;7393042;19;19999;-62
2022/11/21 09:59:18;;;;;;;26.63;15.60;;;;;;;2.85;46.25;100565.66;7393366;19;20102;-62
2022/11/21 10:01:44;;;;;;;28.80;15.52;;;;;;;2.78;46.49;100557.94;7393845;19;20002;-63
2022/11/21 10:04:09;;;;;;;25.35;15.13;;;;;;;3.00;46.25;100561.06;7392495;19;20314;-63
2022/11/21 10:06:50;;;;;;;28.23;14.98;;;;;;;2.95;46.14;100556.56;7392375;19;20038;-62
2022/11/21 10:09:16;;;;;;;25.73;15.05;;;;;;;3.07;45.97;100559.59;7393807;19;20489;-62
2022/11/21 10:15:15;;;;;;;28.42;15.63;;;;;;;3.06;46.02;100557.22;7393308;19;20442;-62
2022/11/21 10:17:49;;;;;;;30.95;15.35;;;;;;;3.03;45.93;100553.19;7393834;19;20078;-62
2022/11/21 10:20:42;;;;;;;27.75;15.10;;;;;;;2.93;46.44;100559.56;7394299;19;20014;-62
2022/11/21 10:23:32;;;;;;;28.95;15.43;;;;;;;3.08;46.21;100547.72;7388856;19;20015;-57
2022/11/21 10:26:07;;;;;;;29.13;16.08;;;;;;;3.24;45.85;100550.16;7392938;19;20001;-58
2022/11/21 10:28:51;;;;;;;27.00;16.00;;;;;;;3.12;46.18;100542.53;7393519;19;20018;-58
2022/11/21 10:31:18;;;;;;;26.23;15.70;;;;;;;3.10;46.06;100539.31;7393004;19;20411;-58
2022/11/21 10:33:44;;;;;;;28.73;15.05;;;;;;;3.24;46.02;100544.75;7393608;19;20014;-58
2022/11/21 10:36:28;;;;;;;27.65;15.90;;;;;;;3.33;45.88;100543.75;7393608;19;19998;-58
2022/11/21 10:38:59;;;;;;;27.38;16.50;;;;;;;3.27;46.24;100550.34;7388135;19;19998;-58
2022/11/21 10:41:33;;;;;;;28.58;15.90;;;;;;;3.34;46.02;100552.66;7393645;19;20006;-58
2022/11/21 10:46:58;;;;;;;30.02;15.70;;;;;;;3.42;45.81;100537.66;7393023;19;20006;-58
2022/11/21 10:49:26;;;;;;;27.00;15.50;;;;;;;3.22;46.44;100536.97;7391217;19;20462;-57
2022/11/21 10:52:04;;;;;;;25.20;14.95;;;;;;;3.25;46.14;100520.19;7392310;19;20450;-58
2022/11/21 10:54:33;;;;;;;28.02;15.43;;;;;;;3.07;46.73;100512.94;7392381;19;20021;-58
2022/11/21 10:57:12;;;;;;;26.15;14.82;;;;;;;3.25;46.35;100509.41;7392453;19;20016;-58
2022/11/21 10:59:38;;;;;;;27.42;14.82;;;;;;;3.46;45.89;100501.72;7390249;19;19995;-58
2022/11/21 11:02:12;;;;;;;29.65;15.75;;;;;;;3.52;45.95;100503.22;7390095;19;20087;-58
2022/11/21 11:04:38;;;;;;;28.00;15.48;;;;;;;3.48;45.91;100496.03;7391901;19;20058;-58
2022/11/21 11:07:25;;;;;;;25.83;14.80;;;;;;;3.28;46.47;100495.28;7392132;19;19999;-58
2022/11/21 11:10:12;;;;;;;24.80;14.35;;;;;;;3.45;46.27;100491.22;7391918;19;19998;-58
2022/11/21 11:15:24;;;;;;;28.95;15.30;;;;;;;3.50;45.99;100477.63;7391220;19;20062;-58
2022/11/21 11:17:59;;;;;;;26.77;15.05;;;;;;;3.48;46.17;100474.44;7391421;19;20089;-58
2022/11/21 11:20:41;;;;;;;28.40;14.65;;;;;;;3.51;46.14;100471.94;7391517;19;20006;-58
2022/11/21 11:23:19;;;;;;;24.67;14.18;;;;;;;3.70;45.76;100466.44;7390575;19;20010;-57
2022/11/21 11:25:53;;;;;;;23.85;13.57;;;;;;;3.79;45.51;100455.72;7391799;19;20012;-57
2022/11/21 11:28:19;;;;;;;24.27;13.90;;;;;;;3.86;45.63;100447.19;7391977;19;20030;-57
2022/11/21 11:30:48;;;;;;;25.83;13.68;;;;;;;3.71;45.75;100441.03;7392229;19;20020;-57
2022/11/21 11:33:33;;;;;;;22.65;13.20;;;;;;;3.78;45.31;100432.50;7389075;19;20006;-57
2022/11/21 11:36:08;;;;;;;22.77;12.85;;;;;;;3.69;45.50;100427.03;7389266;19;20017;-58
2022/11/21 11:38:34;;;;;;;21.23;11.50;;;;;;;3.80;45.41;100424.09;7390261;19;20007;-57
2022/11/21 11:41:07;;;;;;;23.38;12.10;;;;;;;3.97;44.93;100429.66;7391536;19;20025;-58